createdAt,value
2022-11-14T00:02:41.533Z,6.37
2022-11-14T00:05:27.917Z,6.41
2022-11-14T00:08:18.772Z,6.36
2022-11-14T00:11:05.093Z,6.34
2022-11-14T00:13:51.115Z,6.32
2022-11-14T00:16:38.314Z,6.42
2022-11-14T00:19:24.450Z,6.37
2022-11-14T00:22:10.544Z,6.41
2022-11-14T00:24:56.781Z,6.40
2022-11-14T00:27:43.107Z,6.42
2022-11-14T00:30:29.159Z,6.36
2022-11-14T00:33:20.128Z,6.41
2022-11-14T00:36:06.922Z,6.35
2022-11-14T00:38:55.033Z,6.33
2022-11-14T00:41:42.001Z,6.36
2022-11-14T00:44:28.115Z,6.36
2022-11-14T00:47:14.345Z,6.33
2022-11-14T00:50:00.283Z,6.32
2022-11-14T00:52:46.118Z,6.30
2022-11-14T00:55:32.102Z,6.29
2022-11-14T00:58:17.902Z,6.34
2022-11-14T01:01:04.511Z,6.36
2022-11-14T01:03:51.796Z,6.30
2022-11-14T01:06:37.767Z,6.35
2022-11-14T01:09:23.790Z,6.33
2022-11-14T01:12:09.917Z,6.32
2022-11-14T01:14:56.034Z,6.29
2022-11-14T01:17:42.318Z,6.32
2022-11-14T01:20:28.244Z,6.32
2022-11-14T01:23:16.402Z,6.27
2022-11-14T01:26:04.827Z,6.28
2022-11-14T01:28:50.999Z,6.32
2022-11-14T01:31:36.770Z,6.32
2022-11-14T01:34:23.153Z,6.34
2022-11-14T01:37:09.524Z,6.34
2022-11-14T01:39:55.639Z,6.40
2022-11-14T01:42:41.713Z,6.39
2022-11-14T01:45:51.965Z,6.34
2022-11-14T01:48:37.903Z,6.40
2022-11-14T01:51:29.765Z,6.41
2022-11-14T01:54:29.906Z,6.55
2022-11-14T01:57:19.963Z,6.55
2022-11-14T02:00:09.935Z,6.48
2022-11-14T02:02:57.563Z,6.44
2022-11-14T02:05:45.973Z,6.41
2022-11-14T02:08:33.082Z,6.41
2022-11-14T02:11:19.299Z,6.45
2022-11-14T02:14:06.284Z,6.42
2022-11-14T02:17:14.872Z,6.37
2022-11-14T02:20:11.498Z,6.40
2022-11-14T02:22:57.642Z,6.36
2022-11-14T02:25:43.535Z,6.44
2022-11-14T02:28:29.760Z,6.44
2022-11-14T02:31:16.474Z,6.53
2022-11-14T02:34:02.612Z,6.47
2022-11-14T02:36:48.643Z,6.40
2022-11-14T02:39:34.532Z,6.51
2022-11-14T02:42:20.452Z,6.55
2022-11-14T02:45:07.813Z,6.58
2022-11-14T02:47:53.703Z,6.55
2022-11-14T02:50:39.548Z,6.56
2022-11-14T02:53:25.409Z,6.61
2022-11-14T02:56:11.454Z,6.67
2022-11-14T02:58:58.294Z,6.71
2022-11-14T03:01:44.299Z,6.69
2022-11-14T03:04:30.124Z,6.72
2022-11-14T03:07:16.262Z,6.66
2022-11-14T03:10:02.439Z,6.63
2022-11-14T03:12:52.772Z,6.64
2022-11-14T03:15:39.064Z,6.64
2022-11-14T03:18:25.275Z,6.68
2022-11-14T03:21:14.479Z,6.67
2022-11-14T03:24:00.832Z,6.69
2022-11-14T03:26:46.879Z,6.75
2022-11-14T03:29:32.713Z,6.80
2022-11-14T03:32:18.891Z,6.80
2022-11-14T03:35:05.553Z,6.75
2022-11-14T03:37:56.003Z,6.69
2022-11-14T03:40:42.823Z,6.70
2022-11-14T03:43:34.383Z,6.70
2022-11-14T03:46:20.626Z,6.62
2022-11-14T03:49:07.002Z,6.63
2022-11-14T03:51:53.935Z,6.64
2022-11-14T03:54:40.312Z,6.66
2022-11-14T03:57:26.375Z,6.67
2022-11-14T04:00:12.683Z,6.71
2022-11-14T04:02:58.811Z,6.74
2022-11-14T04:05:45.697Z,6.73
2022-11-14T04:08:32.565Z,6.70
2022-11-14T04:11:19.346Z,6.66
2022-11-14T04:14:05.611Z,6.59
2022-11-14T04:16:51.980Z,6.64
2022-11-14T04:19:38.392Z,6.66
2022-11-14T04:22:24.510Z,6.68
2022-11-14T04:25:10.648Z,6.62
2022-11-14T04:27:56.514Z,6.56
2022-11-14T04:30:42.625Z,6.59
2022-11-14T04:33:29.003Z,6.57
2022-11-14T04:36:14.913Z,6.50
2022-11-14T04:39:01.470Z,6.49
2022-11-14T04:41:47.346Z,6.50
2022-11-14T04:44:33.323Z,6.55
2022-11-14T04:47:19.536Z,6.55
2022-11-14T04:50:06.105Z,6.57
2022-11-14T04:52:53.688Z,6.56
2022-11-14T04:55:39.963Z,6.49
2022-11-14T04:58:26.821Z,6.54
2022-11-14T05:01:14.273Z,6.48
2022-11-14T05:04:00.114Z,6.52
2022-11-14T05:06:46.404Z,6.51
2022-11-14T05:09:32.222Z,6.51
2022-11-14T05:12:18.181Z,6.46
2022-11-14T05:15:04.582Z,6.46
2022-11-14T05:17:50.676Z,6.58
2022-11-14T05:20:36.894Z,6.53
2022-11-14T05:23:24.065Z,6.43
2022-11-14T05:26:16.457Z,6.34
2022-11-14T05:29:02.543Z,6.35
2022-11-14T05:31:48.631Z,6.36
2022-11-14T05:34:34.528Z,6.32
2022-11-14T05:37:20.520Z,6.31
2022-11-14T05:40:07.205Z,6.27
2022-11-14T05:42:56.745Z,6.24
2022-11-14T05:45:42.792Z,6.25
2022-11-14T05:48:29.738Z,6.28
2022-11-14T05:51:16.044Z,6.31
2022-11-14T05:54:02.344Z,6.34
2022-11-14T05:56:48.141Z,6.34
2022-11-14T05:59:33.884Z,6.29
2022-11-14T06:02:19.927Z,6.25
2022-11-14T06:05:06.238Z,6.31
2022-11-14T06:07:59.155Z,6.35
2022-11-14T06:10:45.253Z,6.32
2022-11-14T06:13:31.636Z,6.34
2022-11-14T06:16:19.360Z,6.34
2022-11-14T06:19:05.628Z,6.39
2022-11-14T06:21:51.780Z,6.29
2022-11-14T06:24:37.979Z,6.31
2022-11-14T06:27:24.163Z,6.36
2022-11-14T06:30:10.525Z,6.38
2022-11-14T06:32:59.488Z,6.32
2022-11-14T06:35:45.965Z,6.39
2022-11-14T06:38:33.315Z,6.49
2022-11-14T06:41:21.522Z,6.67
2022-11-14T06:44:08.908Z,6.80
2022-11-14T06:46:54.903Z,6.90
2022-11-14T06:49:41.057Z,6.89
2022-11-14T06:52:27.514Z,7.00
2022-11-14T06:55:13.593Z,7.18
2022-11-14T06:57:59.871Z,7.18
2022-11-14T07:00:45.635Z,7.47
2022-11-14T07:03:32.093Z,7.42
2022-11-14T07:06:21.341Z,7.23
2022-11-14T07:09:07.564Z,7.17
2022-11-14T07:11:53.405Z,7.19
2022-11-14T07:14:39.362Z,7.22
2022-11-14T07:17:30.797Z,7.42
2022-11-14T07:20:18.820Z,7.52
2022-11-14T07:23:04.825Z,7.62
2022-11-14T07:25:50.816Z,7.83
2022-11-14T07:28:38.214Z,7.72
2022-11-14T07:31:24.693Z,7.81
2022-11-14T07:34:11.387Z,7.88
2022-11-14T07:36:57.178Z,8.00
2022-11-14T07:39:43.095Z,8.03
2022-11-14T07:42:30.043Z,7.66
2022-11-14T07:45:16.105Z,7.48
2022-11-14T07:48:02.681Z,7.50
2022-11-14T07:50:48.739Z,7.76
2022-11-14T07:53:35.216Z,8.00
2022-11-14T07:56:22.320Z,8.23
2022-11-14T07:59:08.602Z,8.37
2022-11-14T08:01:54.432Z,8.55
2022-11-14T08:04:43.504Z,8.67
2022-11-14T08:07:29.535Z,8.69
2022-11-14T08:10:15.690Z,8.90
2022-11-14T08:13:30.406Z,8.68
2022-11-14T08:16:13.688Z,8.69
2022-11-14T08:19:00.922Z,8.44
2022-11-14T08:21:47.144Z,8.55
2022-11-14T08:24:33.363Z,8.37
2022-11-14T08:27:19.483Z,8.35
2022-11-14T08:30:05.862Z,8.43
2022-11-14T08:32:52.081Z,8.52
2022-11-14T08:35:38.233Z,8.50
2022-11-14T08:38:24.064Z,8.55
2022-11-14T08:41:10.449Z,8.38
2022-11-14T08:43:56.632Z,8.38
2022-11-14T08:46:42.890Z,8.38
2022-11-14T08:49:28.844Z,8.69
2022-11-14T08:52:16.819Z,9.05
2022-11-14T08:55:03.156Z,9.16
2022-11-14T08:57:50.087Z,9.25
2022-11-14T09:00:36.413Z,9.49
2022-11-14T09:03:22.315Z,9.61
2022-11-14T09:06:08.266Z,9.65
2022-11-14T09:08:54.426Z,9.64
2022-11-14T09:11:40.891Z,9.55
2022-11-14T09:14:27.293Z,9.46
2022-11-14T09:17:13.434Z,9.15
2022-11-14T09:19:59.390Z,8.87
2022-11-14T09:22:45.834Z,8.66
2022-11-14T09:25:32.213Z,8.55
2022-11-14T09:28:18.281Z,8.37
2022-11-14T09:31:06.837Z,8.08
2022-11-14T09:33:52.923Z,8.00
2022-11-14T09:36:39.073Z,7.95
2022-11-14T09:39:25.077Z,7.86
2022-11-14T09:42:32.679Z,7.73
2022-11-14T09:45:18.992Z,7.67
2022-11-14T09:48:10.873Z,7.56
2022-11-14T09:51:16.813Z,7.50
2022-11-14T09:54:44.039Z,7.52
2022-11-14T09:57:30.409Z,7.51
2022-11-14T10:00:23.514Z,7.50
2022-11-14T10:03:32.223Z,7.88
2022-11-14T10:06:30.366Z,8.09
2022-11-14T10:09:44.258Z,8.36
2022-11-14T10:12:39.369Z,8.57
2022-11-14T10:15:48.422Z,8.67
2022-11-14T10:18:40.376Z,8.73
2022-11-14T10:21:38.724Z,8.94
2022-11-14T10:24:46.843Z,9.02
2022-11-14T10:28:05.230Z,8.93
2022-11-14T10:31:35.271Z,9.15
2022-11-14T10:34:34.510Z,9.00
2022-11-14T10:37:28.083Z,9.13
2022-11-14T10:40:24.893Z,8.97
2022-11-14T10:43:21.025Z,9.22
2022-11-14T10:46:42.036Z,9.12
2022-11-14T10:49:32.967Z,9.26
2022-11-14T10:52:37.650Z,9.12
2022-11-14T10:55:49.669Z,8.98
2022-11-14T10:58:35.418Z,9.05
2022-11-14T11:01:45.200Z,9.08
2022-11-14T11:04:34.134Z,8.98
2022-11-14T11:07:44.896Z,8.96
2022-11-14T11:10:51.872Z,9.03
2022-11-14T11:13:54.301Z,9.07
2022-11-14T11:16:40.661Z,9.00
2022-11-14T11:19:27.657Z,9.05
2022-11-14T11:22:30.482Z,9.12
2022-11-14T11:25:28.822Z,9.06
2022-11-14T11:28:20.323Z,9.13
2022-11-14T11:31:09.485Z,9.10
2022-11-14T11:33:55.472Z,9.07
2022-11-14T11:36:50.103Z,9.08
2022-11-14T11:39:40.281Z,9.02
2022-11-14T11:43:31.930Z,8.96
2022-11-14T11:45:50.028Z,9.08
2022-11-14T11:48:40.354Z,9.07
2022-11-14T11:51:27.824Z,9.09
2022-11-14T11:54:20.504Z,8.98
2022-11-14T11:57:20.127Z,9.10
2022-11-14T12:00:14.657Z,9.01
2022-11-14T12:03:01.691Z,9.08
2022-11-14T12:06:06.473Z,9.12
2022-11-14T12:09:14.902Z,9.13
2022-11-14T12:16:39.834Z,9.15
2022-11-14T12:19:41.092Z,9.05
2022-11-14T12:22:33.024Z,8.99
2022-11-14T12:25:38.231Z,9.06
2022-11-14T12:28:59.172Z,9.10
2022-11-14T12:31:46.853Z,9.10
2022-11-14T12:34:38.877Z,9.09
2022-11-14T12:37:37.895Z,9.05
2022-11-14T12:40:29.580Z,9.13
2022-11-14T12:43:36.358Z,9.12
2022-11-14T12:46:23.424Z,9.04
2022-11-14T12:49:38.455Z,9.03
2022-11-14T12:52:55.005Z,9.07
2022-11-14T12:55:44.006Z,8.98
2022-11-14T12:58:45.143Z,9.02
2022-11-14T13:01:31.281Z,8.95
2022-11-14T13:04:35.394Z,8.87
2022-11-14T13:07:45.425Z,8.86
2022-11-14T13:10:41.429Z,8.93
2022-11-14T13:13:46.226Z,8.89
2022-11-14T13:16:51.586Z,8.90
2022-11-14T13:20:05.038Z,8.94
2022-11-14T13:22:51.454Z,8.95
2022-11-14T13:25:37.609Z,8.89
2022-11-14T13:28:38.910Z,8.87
2022-11-14T13:31:42.291Z,8.85
2022-11-14T13:34:58.949Z,8.84
2022-11-14T13:37:53.995Z,8.92
2022-11-14T13:40:51.907Z,8.95
2022-11-14T13:43:40.632Z,8.81
2022-11-14T13:46:36.226Z,8.93
2022-11-14T13:49:55.404Z,8.88
2022-11-14T13:52:44.802Z,8.80
2022-11-14T13:55:46.144Z,8.86
2022-11-14T13:58:38.686Z,8.86
2022-11-14T14:01:30.811Z,8.76
2022-11-14T14:04:46.143Z,8.63
2022-11-14T14:08:10.764Z,8.70
2022-11-14T14:11:24.015Z,8.52
2022-11-14T14:14:19.244Z,8.56
2022-11-14T14:17:23.172Z,8.48
2022-11-14T14:20:34.616Z,8.46
2022-11-14T14:23:27.844Z,8.48
2022-11-14T14:26:35.965Z,8.52
2022-11-14T14:29:25.130Z,8.54
2022-11-14T14:32:17.710Z,8.55
2022-11-14T14:35:35.645Z,8.44
2022-11-14T14:38:28.377Z,8.37
2022-11-14T14:41:18.190Z,8.31
2022-11-14T14:44:04.664Z,8.27
2022-11-14T14:46:52.380Z,8.13
2022-11-14T14:49:39.425Z,8.10
2022-11-14T14:52:30.730Z,7.93
2022-11-14T14:55:23.230Z,7.96
2022-11-14T14:58:30.808Z,7.99
2022-11-14T15:01:20.477Z,8.06
2022-11-14T15:04:08.851Z,8.02
2022-11-14T15:06:58.544Z,7.94
2022-11-14T15:09:56.873Z,7.80
2022-11-14T15:12:43.499Z,7.75
2022-11-14T15:15:30.560Z,7.71
2022-11-14T15:18:25.652Z,7.71
2022-11-14T15:21:23.914Z,7.65
2022-11-14T15:24:22.035Z,7.71
2022-11-14T15:27:17.202Z,7.63
2022-11-14T15:30:06.510Z,7.67
2022-11-14T15:33:01.134Z,7.67
2022-11-14T15:35:47.113Z,7.66
2022-11-14T15:38:49.001Z,7.62
2022-11-14T15:41:35.379Z,7.61
2022-11-14T15:44:33.799Z,7.59
2022-11-14T15:47:30.012Z,7.52
2022-11-14T15:50:16.072Z,7.52
2022-11-14T15:53:04.119Z,7.47
2022-11-14T15:55:50.834Z,7.39
2022-11-14T15:58:36.828Z,7.39
2022-11-14T16:01:26.306Z,7.33
2022-11-14T16:04:22.130Z,7.34
2022-11-14T16:07:12.548Z,7.28
2022-11-14T16:09:58.406Z,7.26
2022-11-14T16:12:48.070Z,7.32
2022-11-14T16:15:37.955Z,7.35
2022-11-14T16:18:24.212Z,7.37
2022-11-14T16:21:18.500Z,7.32
2022-11-14T16:24:05.605Z,7.33
2022-11-14T16:26:51.573Z,7.39
2022-11-14T16:29:37.838Z,7.41
2022-11-14T16:32:26.809Z,7.38
2022-11-14T16:35:18.649Z,7.35
2022-11-14T16:38:04.753Z,7.28
2022-11-14T16:40:50.987Z,7.28
2022-11-14T16:43:37.293Z,7.30
2022-11-14T16:46:24.239Z,7.31
2022-11-14T16:49:15.720Z,7.31
2022-11-14T16:52:07.175Z,7.30
2022-11-14T16:54:53.112Z,7.30
2022-11-14T16:57:40.000Z,7.32
2022-11-14T17:00:25.981Z,7.31
2022-11-14T17:03:12.413Z,7.28
2022-11-14T17:05:58.683Z,7.34
2022-11-14T17:08:44.912Z,7.39
2022-11-14T17:11:31.571Z,7.39
2022-11-14T17:14:17.790Z,7.44
2022-11-14T17:17:03.662Z,7.42
2022-11-14T17:19:50.376Z,7.40
2022-11-14T17:22:36.702Z,7.34
2022-11-14T17:25:23.292Z,7.32
2022-11-14T17:28:09.395Z,7.30
2022-11-14T17:30:55.271Z,7.28
2022-11-14T17:33:41.383Z,7.39
2022-11-14T17:36:30.606Z,7.35
2022-11-14T17:39:17.033Z,7.33
2022-11-14T17:42:02.954Z,7.32
2022-11-14T17:44:49.204Z,7.31
2022-11-14T17:47:35.469Z,7.31
2022-11-14T17:50:21.911Z,7.32
2022-11-14T17:53:08.253Z,7.29
2022-11-14T17:55:57.574Z,7.32
2022-11-14T17:58:44.450Z,7.24
2022-11-14T18:01:31.596Z,7.21
2022-11-14T18:04:17.792Z,7.31
2022-11-14T18:07:04.120Z,7.28
2022-11-14T18:09:50.097Z,7.22
2022-11-14T18:12:36.283Z,7.16
2022-11-14T18:15:27.611Z,7.17
2022-11-14T18:18:14.231Z,7.06
2022-11-14T18:21:16.641Z,7.03
2022-11-14T18:24:02.775Z,7.03
2022-11-14T18:26:49.004Z,6.96
2022-11-14T18:29:35.201Z,7.02
2022-11-14T18:32:21.148Z,7.05
2022-11-14T18:35:07.574Z,7.06
2022-11-14T18:37:53.543Z,7.06
2022-11-14T18:40:43.532Z,7.02
2022-11-14T18:43:32.776Z,6.97
2022-11-14T18:46:23.906Z,6.95
2022-11-14T18:49:11.310Z,6.95
2022-11-14T18:51:57.781Z,6.98
2022-11-14T18:54:43.507Z,7.10
2022-11-14T18:57:29.605Z,7.02
2022-11-14T19:00:15.863Z,7.01
2022-11-14T19:03:05.955Z,6.94
2022-11-14T19:05:52.345Z,6.86
2022-11-14T19:08:38.446Z,6.82
2022-11-14T19:11:43.360Z,6.83
2022-11-14T19:14:29.373Z,6.84
2022-11-14T19:17:18.839Z,6.78
2022-11-14T19:20:08.861Z,6.89
2022-11-14T19:22:58.866Z,6.91
2022-11-14T19:25:44.695Z,6.88
2022-11-14T19:28:30.886Z,6.87
2022-11-14T19:31:17.943Z,6.83
2022-11-14T19:34:03.747Z,6.83
2022-11-14T19:37:05.035Z,6.75
2022-11-14T19:39:55.509Z,6.82
2022-11-14T19:42:41.252Z,6.75
2022-11-14T19:45:27.294Z,6.76
2022-11-14T19:48:13.825Z,6.73
2022-11-14T19:51:00.798Z,6.82
2022-11-14T19:53:46.926Z,6.73
2022-11-14T19:56:33.253Z,6.66
2022-11-14T19:59:24.214Z,6.78
2022-11-14T20:02:14.640Z,6.90
2022-11-14T20:05:01.055Z,6.90
2022-11-14T20:07:47.431Z,6.79
2022-11-14T20:10:47.739Z,6.79
2022-11-14T20:13:37.411Z,6.80
2022-11-14T20:16:29.226Z,6.77
2022-11-14T20:19:16.245Z,6.80
2022-11-14T20:22:03.106Z,6.84
2022-11-14T20:24:49.445Z,6.88
2022-11-14T20:27:35.749Z,6.92
2022-11-14T20:30:21.717Z,7.05
2022-11-14T20:33:09.186Z,7.08
2022-11-14T20:35:56.037Z,7.07
2022-11-14T20:38:42.526Z,7.09
2022-11-14T20:41:28.365Z,7.04
2022-11-14T20:44:14.764Z,7.02
2022-11-14T20:47:01.103Z,7.04
2022-11-14T20:49:47.621Z,7.03
2022-11-14T20:52:35.447Z,6.97
2022-11-14T20:55:21.355Z,6.93
2022-11-14T20:58:07.254Z,6.94
2022-11-14T21:00:54.683Z,6.82
2022-11-14T21:03:41.190Z,6.84
2022-11-14T21:06:27.575Z,6.68
2022-11-14T21:09:13.874Z,6.63
2022-11-14T21:11:59.866Z,6.66
2022-11-14T21:14:46.051Z,6.77
2022-11-14T21:17:32.147Z,7.07
2022-11-14T21:20:18.161Z,7.03
2022-11-14T21:23:04.005Z,7.02
2022-11-14T21:25:49.945Z,6.97
2022-11-14T21:28:38.286Z,6.98
2022-11-14T21:31:33.592Z,6.89
2022-11-14T21:34:19.889Z,6.84
2022-11-14T21:37:06.139Z,6.87
2022-11-14T21:39:52.038Z,6.88
2022-11-14T21:42:40.007Z,6.88
2022-11-14T21:45:26.595Z,6.85
2022-11-14T21:48:12.398Z,6.84
2022-11-14T21:51:11.522Z,6.80
2022-11-14T21:53:59.348Z,6.80
2022-11-14T21:56:45.394Z,6.85
2022-11-14T21:59:31.657Z,6.86
2022-11-14T22:02:36.192Z,6.89
2022-11-14T22:05:22.354Z,6.93
2022-11-14T22:08:08.324Z,6.93
2022-11-14T22:10:59.955Z,6.84
2022-11-14T22:13:45.684Z,6.67
2022-11-14T22:16:32.245Z,6.58
2022-11-14T22:19:19.095Z,6.48
2022-11-14T22:22:05.046Z,6.30
2022-11-14T22:24:51.124Z,6.30
2022-11-14T22:27:37.076Z,6.29
2022-11-14T22:30:22.812Z,6.22
2022-11-14T22:33:08.635Z,6.17
2022-11-14T22:35:54.441Z,6.22
2022-11-14T22:38:41.285Z,6.13
2022-11-14T22:41:32.583Z,6.15
2022-11-14T22:44:19.055Z,6.16
2022-11-14T22:47:04.883Z,6.10
2022-11-14T22:49:50.855Z,6.02
2022-11-14T22:52:36.865Z,6.01
2022-11-14T22:55:22.981Z,6.02
2022-11-14T22:58:09.149Z,6.07
2022-11-14T23:00:55.114Z,6.07
2022-11-14T23:03:54.707Z,6.01
2022-11-14T23:06:40.808Z,5.94
2022-11-14T23:09:27.269Z,5.96
2022-11-14T23:12:13.665Z,6.01
2022-11-14T23:14:59.668Z,5.96
2022-11-14T23:17:45.464Z,5.94
2022-11-14T23:20:31.616Z,6.03
2022-11-14T23:23:17.881Z,6.12
2022-11-14T23:26:12.339Z,6.17
2022-11-14T23:28:58.953Z,6.24
2022-11-14T23:31:45.026Z,6.24
2022-11-14T23:34:31.086Z,6.20
2022-11-14T23:37:17.007Z,6.16
2022-11-14T23:40:03.133Z,6.21
2022-11-14T23:42:49.338Z,6.27
2022-11-14T23:45:35.326Z,6.32
2022-11-14T23:48:22.720Z,6.15
2022-11-14T23:51:09.752Z,6.07
2022-11-14T23:53:55.906Z,6.07
2022-11-14T23:56:42.005Z,5.94
2022-11-14T23:59:28.022Z,5.92
